sensor_id;sensor_type;location;lat;lon;timestamp;P1;P2;P0
61913;PMS5003;50095;53.336;-1.488;2022-09-21T00:01:59;6;6;
61913;PMS5003;50095;53.336;-1.488;2022-09-21T00:04:26;5;5;
61913;PMS5003;50095;53.336;-1.488;2022-09-21T00:06:53;8;7;
61913;PMS5003;50095;53.336;-1.488;2022-09-21T00:09:20;5;5;
61913;PMS5003;50095;53.336;-1.488;2022-09-21T00:11:48;4;4;
61913;PMS5003;50095;53.336;-1.488;2022-09-21T00:14:15;6;6;
61913;PMS5003;50095;53.336;-1.488;2022-09-21T00:16:43;5;5;
61913;PMS5003;50095;53.336;-1.488;2022-09-21T00:19:11;5;5;
61913;PMS5003;50095;53.336;-1.488;2022-09-21T00:21:38;4;4;
61913;PMS5003;50095;53.336;-1.488;2022-09-21T00:24:06;7;5;
61913;PMS5003;50095;53.336;-1.488;2022-09-21T00:26:33;4;4;
61913;PMS5003;50095;53.336;-1.488;2022-09-21T00:29:01;5;5;
61913;PMS5003;50095;53.336;-1.488;2022-09-21T00:31:29;9;9;
61913;PMS5003;50095;53.336;-1.488;2022-09-21T00:33:57;6;5;
61913;PMS5003;50095;53.336;-1.488;2022-09-21T00:36:26;6;6;
61913;PMS5003;50095;53.336;-1.488;2022-09-21T00:38:54;6;6;
61913;PMS5003;50095;53.336;-1.488;2022-09-21T00:41:23;5;5;
61913;PMS5003;50095;53.336;-1.488;2022-09-21T00:44:19;6;6;
61913;PMS5003;50095;53.336;-1.488;2022-09-21T00:46:54;5;5;
61913;PMS5003;50095;53.336;-1.488;2022-09-21T00:49:23;5;5;
61913;PMS5003;50095;53.336;-1.488;2022-09-21T00:51:52;5;5;
61913;PMS5003;50095;53.336;-1.488;2022-09-21T00:54:24;7;6;
61913;PMS5003;50095;53.336;-1.488;2022-09-21T00:56:56;4;4;
61913;PMS5003;50095;53.336;-1.488;2022-09-21T00:59:24;6;6;
61913;PMS5003;50095;53.336;-1.488;2022-09-21T01:01:52;8;8;
61913;PMS5003;50095;53.336;-1.488;2022-09-21T01:04:20;6;6;
61913;PMS5003;50095;53.336;-1.488;2022-09-21T01:06:48;5;5;
61913;PMS5003;50095;53.336;-1.488;2022-09-21T01:09:16;8;7;
61913;PMS5003;50095;53.336;-1.488;2022-09-21T01:11:46;6;4;
61913;PMS5003;50095;53.336;-1.488;2022-09-21T01:14:32;5;5;
61913;PMS5003;50095;53.336;-1.488;2022-09-21T01:17:23;4;4;
61913;PMS5003;50095;53.336;-1.488;2022-09-21T01:20:09;4;4;
61913;PMS5003;50095;53.336;-1.488;2022-09-21T01:22:55;4;4;
61913;PMS5003;50095;53.336;-1.488;2022-09-21T01:25:34;6;4;
61913;PMS5003;50095;53.336;-1.488;2022-09-21T01:28:18;6;6;
61913;PMS5003;50095;53.336;-1.488;2022-09-21T01:30:53;5;5;
61913;PMS5003;50095;53.336;-1.488;2022-09-21T01:33:26;5;5;
61913;PMS5003;50095;53.336;-1.488;2022-09-21T01:35:56;6;6;
61913;PMS5003;50095;53.336;-1.488;2022-09-21T01:38:29;6;5;
61913;PMS5003;50095;53.336;-1.488;2022-09-21T01:41:03;4;4;
61913;PMS5003;50095;53.336;-1.488;2022-09-21T01:43:33;5;5;
61913;PMS5003;50095;53.336;-1.488;2022-09-21T01:46:04;4;4;
61913;PMS5003;50095;53.336;-1.488;2022-09-21T01:48:37;3;3;
61913;PMS5003;50095;53.336;-1.488;2022-09-21T01:51:08;5;4;
61913;PMS5003;50095;53.336;-1.488;2022-09-21T01:53:40;5;5;
61913;PMS5003;50095;53.336;-1.488;2022-09-21T01:56:12;5;5;
61913;PMS5003;50095;53.336;-1.488;2022-09-21T01:58:46;8;8;
61913;PMS5003;50095;53.336;-1.488;2022-09-21T02:01:19;6;6;
61913;PMS5003;50095;53.336;-1.488;2022-09-21T02:03:51;8;4;
61913;PMS5003;50095;53.336;-1.488;2022-09-21T02:06:23;5;5;
61913;PMS5003;50095;53.336;-1.488;2022-09-21T02:08:51;7;6;
61913;PMS5003;50095;53.336;-1.488;2022-09-21T02:11:19;5;5;
61913;PMS5003;50095;53.336;-1.488;2022-09-21T02:13:47;6;6;
61913;PMS5003;50095;53.336;-1.488;2022-09-21T02:16:25;4;4;
61913;PMS5003;50095;53.336;-1.488;2022-09-21T02:19:02;5;5;
61913;PMS5003;50095;53.336;-1.488;2022-09-21T02:21:39;4;4;
61913;PMS5003;50095;53.336;-1.488;2022-09-21T02:24:19;5;5;
61913;PMS5003;50095;53.336;-1.488;2022-09-21T02:26:57;4;4;
61913;PMS5003;50095;53.336;-1.488;2022-09-21T02:29:32;7;5;
61913;PMS5003;50095;53.336;-1.488;2022-09-21T02:32:08;6;6;
61913;PMS5003;50095;53.336;-1.488;2022-09-21T02:34:42;5;5;
61913;PMS5003;50095;53.336;-1.488;2022-09-21T02:37:16;5;5;
61913;PMS5003;50095;53.336;-1.488;2022-09-21T02:39:52;5;5;
61913;PMS5003;50095;53.336;-1.488;2022-09-21T02:42:26;5;5;
61913;PMS5003;50095;53.336;-1.488;2022-09-21T02:44:57;5;5;
61913;PMS5003;50095;53.336;-1.488;2022-09-21T02:47:32;6;6;
61913;PMS5003;50095;53.336;-1.488;2022-09-21T02:50:05;6;6;
61913;PMS5003;50095;53.336;-1.488;2022-09-21T02:52:37;4;4;
61913;PMS5003;50095;53.336;-1.488;2022-09-21T02:55:08;5;5;
61913;PMS5003;50095;53.336;-1.488;2022-09-21T02:57:36;3;3;
61913;PMS5003;50095;53.336;-1.488;2022-09-21T03:00:05;6;6;
61913;PMS5003;50095;53.336;-1.488;2022-09-21T03:02:35;5;5;
61913;PMS5003;50095;53.336;-1.488;2022-09-21T03:05:04;3;3;
61913;PMS5003;50095;53.336;-1.488;2022-09-21T03:07:32;7;5;
61913;PMS5003;50095;53.336;-1.488;2022-09-21T03:10:00;4;4;
61913;PMS5003;50095;53.336;-1.488;2022-09-21T03:12:27;5;4;
61913;PMS5003;50095;53.336;-1.488;2022-09-21T03:14:55;6;5;
61913;PMS5003;50095;53.336;-1.488;2022-09-21T03:17:22;5;5;
61913;PMS5003;50095;53.336;-1.488;2022-09-21T03:19:50;4;4;
61913;PMS5003;50095;53.336;-1.488;2022-09-21T03:22:18;5;5;
61913;PMS5003;50095;53.336;-1.488;2022-09-21T03:24:45;4;4;
61913;PMS5003;50095;53.336;-1.488;2022-09-21T03:27:12;5;3;
61913;PMS5003;50095;53.336;-1.488;2022-09-21T03:29:39;5;5;
61913;PMS5003;50095;53.336;-1.488;2022-09-21T03:32:07;4;4;
61913;PMS5003;50095;53.336;-1.488;2022-09-21T03:34:34;7;6;
61913;PMS5003;50095;53.336;-1.488;2022-09-21T03:37:03;6;5;
61913;PMS5003;50095;53.336;-1.488;2022-09-21T03:39:32;5;5;
61913;PMS5003;50095;53.336;-1.488;2022-09-21T03:41:59;5;5;
61913;PMS5003;50095;53.336;-1.488;2022-09-21T03:44:27;4;4;
61913;PMS5003;50095;53.336;-1.488;2022-09-21T03:46:54;5;5;
61913;PMS5003;50095;53.336;-1.488;2022-09-21T03:49:21;4;4;
61913;PMS5003;50095;53.336;-1.488;2022-09-21T03:51:48;5;5;
61913;PMS5003;50095;53.336;-1.488;2022-09-21T03:54:15;6;6;
61913;PMS5003;50095;53.336;-1.488;2022-09-21T03:56:43;5;5;
61913;PMS5003;50095;53.336;-1.488;2022-09-21T03:59:10;5;5;
61913;PMS5003;50095;53.336;-1.488;2022-09-21T04:01:38;5;5;
61913;PMS5003;50095;53.336;-1.488;2022-09-21T04:04:05;5;5;
61913;PMS5003;50095;53.336;-1.488;2022-09-21T04:06:32;3;3;
61913;PMS5003;50095;53.336;-1.488;2022-09-21T04:09:00;6;6;
61913;PMS5003;50095;53.336;-1.488;2022-09-21T04:11:27;5;5;
61913;PMS5003;50095;53.336;-1.488;2022-09-21T04:13:55;4;4;
61913;PMS5003;50095;53.336;-1.488;2022-09-21T04:16:22;4;4;
61913;PMS5003;50095;53.336;-1.488;2022-09-21T04:18:50;7;6;
61913;PMS5003;50095;53.336;-1.488;2022-09-21T04:21:18;7;6;
61913;PMS5003;50095;53.336;-1.488;2022-09-21T04:23:46;7;7;
61913;PMS5003;50095;53.336;-1.488;2022-09-21T04:26:22;4;4;
61913;PMS5003;50095;53.336;-1.488;2022-09-21T04:28:51;6;6;
61913;PMS5003;50095;53.336;-1.488;2022-09-21T04:31:20;6;6;
61913;PMS5003;50095;53.336;-1.488;2022-09-21T04:33:49;4;4;
61913;PMS5003;50095;53.336;-1.488;2022-09-21T04:36:17;6;5;
61913;PMS5003;50095;53.336;-1.488;2022-09-21T04:38:45;5;5;
61913;PMS5003;50095;53.336;-1.488;2022-09-21T04:41:13;6;6;
61913;PMS5003;50095;53.336;-1.488;2022-09-21T04:43:42;4;4;
61913;PMS5003;50095;53.336;-1.488;2022-09-21T04:46:11;5;5;
61913;PMS5003;50095;53.336;-1.488;2022-09-21T04:48:40;5;5;
61913;PMS5003;50095;53.336;-1.488;2022-09-21T04:51:08;5;5;
61913;PMS5003;50095;53.336;-1.488;2022-09-21T04:53:38;7;7;
61913;PMS5003;50095;53.336;-1.488;2022-09-21T04:56:08;6;6;
61913;PMS5003;50095;53.336;-1.488;2022-09-21T04:58:38;7;5;
61913;PMS5003;50095;53.336;-1.488;2022-09-21T05:01:06;5;5;
61913;PMS5003;50095;53.336;-1.488;2022-09-21T05:03:32;4;4;
61913;PMS5003;50095;53.336;-1.488;2022-09-21T05:05:59;3;3;
61913;PMS5003;50095;53.336;-1.488;2022-09-21T05:08:27;6;5;
61913;PMS5003;50095;53.336;-1.488;2022-09-21T05:10:54;4;4;
61913;PMS5003;50095;53.336;-1.488;2022-09-21T05:13:21;5;5;
61913;PMS5003;50095;53.336;-1.488;2022-09-21T05:15:49;5;5;
61913;PMS5003;50095;53.336;-1.488;2022-09-21T05:18:16;8;8;
61913;PMS5003;50095;53.336;-1.488;2022-09-21T05:20:42;5;5;
61913;PMS5003;50095;53.336;-1.488;2022-09-21T05:23:09;7;5;
61913;PMS5003;50095;53.336;-1.488;2022-09-21T05:25:37;5;5;
61913;PMS5003;50095;53.336;-1.488;2022-09-21T05:28:10;4;4;
61913;PMS5003;50095;53.336;-1.488;2022-09-21T05:30:38;10;8;
61913;PMS5003;50095;53.336;-1.488;2022-09-21T05:33:06;5;5;
61913;PMS5003;50095;53.336;-1.488;2022-09-21T05:35:41;4;4;
61913;PMS5003;50095;53.336;-1.488;2022-09-21T05:38:21;6;5;
61913;PMS5003;50095;53.336;-1.488;2022-09-21T05:40:48;6;6;
61913;PMS5003;50095;53.336;-1.488;2022-09-21T05:43:17;4;4;
61913;PMS5003;50095;53.336;-1.488;2022-09-21T05:45:46;6;6;
61913;PMS5003;50095;53.336;-1.488;2022-09-21T05:48:19;8;6;
61913;PMS5003;50095;53.336;-1.488;2022-09-21T05:50:53;7;6;
61913;PMS5003;50095;53.336;-1.488;2022-09-21T05:53:29;5;5;
61913;PMS5003;50095;53.336;-1.488;2022-09-21T05:56:05;3;3;
61913;PMS5003;50095;53.336;-1.488;2022-09-21T05:58:44;5;5;
61913;PMS5003;50095;53.336;-1.488;2022-09-21T06:01:23;6;4;
61913;PMS5003;50095;53.336;-1.488;2022-09-21T06:04:02;6;5;
61913;PMS5003;50095;53.336;-1.488;2022-09-21T06:06:29;5;5;
61913;PMS5003;50095;53.336;-1.488;2022-09-21T06:08:56;6;6;
61913;PMS5003;50095;53.336;-1.488;2022-09-21T06:11:23;6;5;
61913;PMS5003;50095;53.336;-1.488;2022-09-21T06:13:50;4;4;
61913;PMS5003;50095;53.336;-1.488;2022-09-21T06:16:17;6;6;
61913;PMS5003;50095;53.336;-1.488;2022-09-21T06:18:44;5;5;
61913;PMS5003;50095;53.336;-1.488;2022-09-21T06:21:11;6;5;
61913;PMS5003;50095;53.336;-1.488;2022-09-21T06:23:38;6;6;
61913;PMS5003;50095;53.336;-1.488;2022-09-21T06:26:05;4;4;
61913;PMS5003;50095;53.336;-1.488;2022-09-21T06:28:32;9;7;
61913;PMS5003;50095;53.336;-1.488;2022-09-21T06:31:00;5;3;
61913;PMS5003;50095;53.336;-1.488;2022-09-21T06:33:27;7;7;
61913;PMS5003;50095;53.336;-1.488;2022-09-21T06:35:54;5;5;
61913;PMS5003;50095;53.336;-1.488;2022-09-21T06:38:23;4;4;
61913;PMS5003;50095;53.336;-1.488;2022-09-21T06:40:52;6;5;
61913;PMS5003;50095;53.336;-1.488;2022-09-21T06:43:21;7;6;
61913;PMS5003;50095;53.336;-1.488;2022-09-21T06:45:52;6;6;
61913;PMS5003;50095;53.336;-1.488;2022-09-21T06:48:20;6;6;
61913;PMS5003;50095;53.336;-1.488;2022-09-21T06:50:47;5;5;
61913;PMS5003;50095;53.336;-1.488;2022-09-21T06:53:15;7;7;
61913;PMS5003;50095;53.336;-1.488;2022-09-21T06:55:42;7;6;
61913;PMS5003;50095;53.336;-1.488;2022-09-21T06:58:09;6;5;
61913;PMS5003;50095;53.336;-1.488;2022-09-21T07:00:36;4;4;
61913;PMS5003;50095;53.336;-1.488;2022-09-21T07:03:04;5;5;
61913;PMS5003;50095;53.336;-1.488;2022-09-21T07:05:31;5;5;
61913;PMS5003;50095;53.336;-1.488;2022-09-21T07:07:59;3;3;
61913;PMS5003;50095;53.336;-1.488;2022-09-21T07:10:26;5;5;
61913;PMS5003;50095;53.336;-1.488;2022-09-21T07:12:54;9;8;
61913;PMS5003;50095;53.336;-1.488;2022-09-21T07:15:22;10;10;
61913;PMS5003;50095;53.336;-1.488;2022-09-21T07:17:49;9;9;
61913;PMS5003;50095;53.336;-1.488;2022-09-21T07:20:17;5;5;
61913;PMS5003;50095;53.336;-1.488;2022-09-21T07:22:44;7;7;
61913;PMS5003;50095;53.336;-1.488;2022-09-21T07:25:11;6;6;
61913;PMS5003;50095;53.336;-1.488;2022-09-21T07:27:39;6;5;
61913;PMS5003;50095;53.336;-1.488;2022-09-21T07:30:07;6;6;
61913;PMS5003;50095;53.336;-1.488;2022-09-21T07:32:35;9;9;
61913;PMS5003;50095;53.336;-1.488;2022-09-21T07:35:02;10;7;
61913;PMS5003;50095;53.336;-1.488;2022-09-21T07:37:30;9;9;
61913;PMS5003;50095;53.336;-1.488;2022-09-21T07:39:57;13;11;
61913;PMS5003;50095;53.336;-1.488;2022-09-21T07:42:24;10;10;
61913;PMS5003;50095;53.336;-1.488;2022-09-21T07:44:51;11;9;
61913;PMS5003;50095;53.336;-1.488;2022-09-21T07:47:18;12;12;
61913;PMS5003;50095;53.336;-1.488;2022-09-21T07:49:45;15;13;
61913;PMS5003;50095;53.336;-1.488;2022-09-21T07:52:13;12;12;
61913;PMS5003;50095;53.336;-1.488;2022-09-21T07:54:40;16;15;
61913;PMS5003;50095;53.336;-1.488;2022-09-21T07:57:07;11;9;
61913;PMS5003;50095;53.336;-1.488;2022-09-21T07:59:34;16;12;
61913;PMS5003;50095;53.336;-1.488;2022-09-21T08:02:01;15;15;
61913;PMS5003;50095;53.336;-1.488;2022-09-21T08:04:28;13;12;
61913;PMS5003;50095;53.336;-1.488;2022-09-21T08:06:56;14;11;
61913;PMS5003;50095;53.336;-1.488;2022-09-21T08:09:23;14;13;
61913;PMS5003;50095;53.336;-1.488;2022-09-21T08:11:50;18;15;
61913;PMS5003;50095;53.336;-1.488;2022-09-21T08:14:17;12;11;
61913;PMS5003;50095;53.336;-1.488;2022-09-21T08:16:45;10;10;
61913;PMS5003;50095;53.336;-1.488;2022-09-21T08:19:13;16;12;
61913;PMS5003;50095;53.336;-1.488;2022-09-21T08:21:40;13;12;
61913;PMS5003;50095;53.336;-1.488;2022-09-21T08:24:08;17;17;
61913;PMS5003;50095;53.336;-1.488;2022-09-21T08:26:36;16;14;
61913;PMS5003;50095;53.336;-1.488;2022-09-21T08:29:03;14;13;
61913;PMS5003;50095;53.336;-1.488;2022-09-21T08:31:31;14;11;
61913;PMS5003;50095;53.336;-1.488;2022-09-21T08:33:58;12;10;
61913;PMS5003;50095;53.336;-1.488;2022-09-21T08:36:26;11;11;
61913;PMS5003;50095;53.336;-1.488;2022-09-21T08:38:53;13;11;
61913;PMS5003;50095;53.336;-1.488;2022-09-21T08:41:21;11;11;
61913;PMS5003;50095;53.336;-1.488;2022-09-21T08:43:53;12;11;
61913;PMS5003;50095;53.336;-1.488;2022-09-21T08:46:26;15;14;
61913;PMS5003;50095;53.336;-1.488;2022-09-21T08:48:57;10;10;
61913;PMS5003;50095;53.336;-1.488;2022-09-21T08:51:29;10;10;
61913;PMS5003;50095;53.336;-1.488;2022-09-21T08:54:04;15;12;
61913;PMS5003;50095;53.336;-1.488;2022-09-21T08:56:38;10;9;
61913;PMS5003;50095;53.336;-1.488;2022-09-21T08:59:07;13;11;
61913;PMS5003;50095;53.336;-1.488;2022-09-21T09:01:42;11;10;
61913;PMS5003;50095;53.336;-1.488;2022-09-21T09:04:40;16;15;
61913;PMS5003;50095;53.336;-1.488;2022-09-21T09:07:26;16;14;
61913;PMS5003;50095;53.336;-1.488;2022-09-21T09:10:13;9;9;
61913;PMS5003;50095;53.336;-1.488;2022-09-21T09:12:55;9;9;
61913;PMS5003;50095;53.336;-1.488;2022-09-21T09:15:33;10;10;
61913;PMS5003;50095;53.336;-1.488;2022-09-21T09:18:10;10;9;
61913;PMS5003;50095;53.336;-1.488;2022-09-21T09:20:44;10;10;
61913;PMS5003;50095;53.336;-1.488;2022-09-21T09:23:17;9;9;
61913;PMS5003;50095;53.336;-1.488;2022-09-21T09:25:48;12;11;
61913;PMS5003;50095;53.336;-1.488;2022-09-21T09:28:21;13;11;
61913;PMS5003;50095;53.336;-1.488;2022-09-21T09:30:55;16;14;
61913;PMS5003;50095;53.336;-1.488;2022-09-21T09:33:27;8;8;
61913;PMS5003;50095;53.336;-1.488;2022-09-21T09:36:04;9;9;
61913;PMS5003;50095;53.336;-1.488;2022-09-21T09:38:36;12;12;
61913;PMS5003;50095;53.336;-1.488;2022-09-21T09:41:12;12;12;
61913;PMS5003;50095;53.336;-1.488;2022-09-21T09:43:58;13;11;
61913;PMS5003;50095;53.336;-1.488;2022-09-21T09:46:40;8;8;
61913;PMS5003;50095;53.336;-1.488;2022-09-21T09:49:22;9;9;
61913;PMS5003;50095;53.336;-1.488;2022-09-21T09:51:59;9;9;
61913;PMS5003;50095;53.336;-1.488;2022-09-21T09:54:28;9;9;
61913;PMS5003;50095;53.336;-1.488;2022-09-21T09:57:00;10;10;
61913;PMS5003;50095;53.336;-1.488;2022-09-21T09:59:29;7;7;
61913;PMS5003;50095;53.336;-1.488;2022-09-21T10:02:02;10;9;
61913;PMS5003;50095;53.336;-1.488;2022-09-21T10:04:31;7;6;
61913;PMS5003;50095;53.336;-1.488;2022-09-21T10:06:58;10;9;
61913;PMS5003;50095;53.336;-1.488;2022-09-21T10:09:26;8;8;
61913;PMS5003;50095;53.336;-1.488;2022-09-21T10:11:56;12;10;
61913;PMS5003;50095;53.336;-1.488;2022-09-21T10:14:26;10;10;
61913;PMS5003;50095;53.336;-1.488;2022-09-21T10:16:58;11;10;
61913;PMS5003;50095;53.336;-1.488;2022-09-21T10:19:30;8;6;
61913;PMS5003;50095;53.336;-1.488;2022-09-21T10:21:58;9;9;
61913;PMS5003;50095;53.336;-1.488;2022-09-21T10:24:28;12;11;
61913;PMS5003;50095;53.336;-1.488;2022-09-21T10:27:01;12;10;
61913;PMS5003;50095;53.336;-1.488;2022-09-21T10:29:38;10;9;
61913;PMS5003;50095;53.336;-1.488;2022-09-21T10:32:17;6;6;
61913;PMS5003;50095;53.336;-1.488;2022-09-21T10:35:21;10;10;
61913;PMS5003;50095;53.336;-1.488;2022-09-21T10:38:07;8;8;
61913;PMS5003;50095;53.336;-1.488;2022-09-21T10:40:36;9;8;
61913;PMS5003;50095;53.336;-1.488;2022-09-21T10:43:04;9;8;
61913;PMS5003;50095;53.336;-1.488;2022-09-21T10:45:51;9;8;
61913;PMS5003;50095;53.336;-1.488;2022-09-21T10:48:20;11;10;
61913;PMS5003;50095;53.336;-1.488;2022-09-21T10:50:49;9;8;
61913;PMS5003;50095;53.336;-1.488;2022-09-21T10:53:21;10;10;
61913;PMS5003;50095;53.336;-1.488;2022-09-21T10:55:53;10;10;
61913;PMS5003;50095;53.336;-1.488;2022-09-21T10:58:25;10;9;
61913;PMS5003;50095;53.336;-1.488;2022-09-21T11:00:53;12;12;
61913;PMS5003;50095;53.336;-1.488;2022-09-21T11:03:41;7;7;
61913;PMS5003;50095;53.336;-1.488;2022-09-21T11:06:15;9;8;
61913;PMS5003;50095;53.336;-1.488;2022-09-21T11:08:48;9;8;
61913;PMS5003;50095;53.336;-1.488;2022-09-21T11:11:31;8;7;
61913;PMS5003;50095;53.336;-1.488;2022-09-21T11:14:10;9;7;
61913;PMS5003;50095;53.336;-1.488;2022-09-21T11:16:47;8;7;
61913;PMS5003;50095;53.336;-1.488;2022-09-21T11:19:24;11;10;
61913;PMS5003;50095;53.336;-1.488;2022-09-21T11:22:00;8;8;
61913;PMS5003;50095;53.336;-1.488;2022-09-21T11:24:35;7;6;
61913;PMS5003;50095;53.336;-1.488;2022-09-21T11:27:09;6;6;
61913;PMS5003;50095;53.336;-1.488;2022-09-21T11:29:41;6;6;
61913;PMS5003;50095;53.336;-1.488;2022-09-21T11:32:20;7;7;
61913;PMS5003;50095;53.336;-1.488;2022-09-21T11:35:07;7;7;
61913;PMS5003;50095;53.336;-1.488;2022-09-21T11:37:49;8;8;
61913;PMS5003;50095;53.336;-1.488;2022-09-21T11:40:28;7;7;
61913;PMS5003;50095;53.336;-1.488;2022-09-21T11:43:07;8;7;
61913;PMS5003;50095;53.336;-1.488;2022-09-21T11:45:54;7;7;
61913;PMS5003;50095;53.336;-1.488;2022-09-21T11:48:30;8;8;
61913;PMS5003;50095;53.336;-1.488;2022-09-21T11:51:09;6;6;
61913;PMS5003;50095;53.336;-1.488;2022-09-21T11:54:02;5;5;
61913;PMS5003;50095;53.336;-1.488;2022-09-21T11:56:45;9;9;
61913;PMS5003;50095;53.336;-1.488;2022-09-21T11:59:24;7;6;
61913;PMS5003;50095;53.336;-1.488;2022-09-21T12:02:13;5;5;
61913;PMS5003;50095;53.336;-1.488;2022-09-21T12:04:54;6;6;
61913;PMS5003;50095;53.336;-1.488;2022-09-21T12:07:30;5;5;
61913;PMS5003;50095;53.336;-1.488;2022-09-21T12:10:29;7;6;
61913;PMS5003;50095;53.336;-1.488;2022-09-21T12:13:06;6;4;
61913;PMS5003;50095;53.336;-1.488;2022-09-21T12:15:42;6;5;
61913;PMS5003;50095;53.336;-1.488;2022-09-21T12:18:16;8;8;
61913;PMS5003;50095;53.336;-1.488;2022-09-21T12:20:54;4;4;
61913;PMS5003;50095;53.336;-1.488;2022-09-21T12:23:38;5;5;
61913;PMS5003;50095;53.336;-1.488;2022-09-21T12:26:09;6;6;
61913;PMS5003;50095;53.336;-1.488;2022-09-21T12:28:41;5;4;
61913;PMS5003;50095;53.336;-1.488;2022-09-21T12:31:13;7;7;
61913;PMS5003;50095;53.336;-1.488;2022-09-21T12:33:47;4;4;
61913;PMS5003;50095;53.336;-1.488;2022-09-21T12:36:19;5;5;
61913;PMS5003;50095;53.336;-1.488;2022-09-21T12:38:55;8;6;
61913;PMS5003;50095;53.336;-1.488;2022-09-21T12:41:29;8;8;
61913;PMS5003;50095;53.336;-1.488;2022-09-21T12:44:04;4;4;
61913;PMS5003;50095;53.336;-1.488;2022-09-21T12:46:42;8;7;
61913;PMS5003;50095;53.336;-1.488;2022-09-21T12:49:14;6;5;
61913;PMS5003;50095;53.336;-1.488;2022-09-21T12:51:47;3;3;
61913;PMS5003;50095;53.336;-1.488;2022-09-21T12:54:19;7;7;
61913;PMS5003;50095;53.336;-1.488;2022-09-21T12:56:57;7;7;
61913;PMS5003;50095;53.336;-1.488;2022-09-21T12:59:32;5;5;
61913;PMS5003;50095;53.336;-1.488;2022-09-21T13:02:11;4;4;
61913;PMS5003;50095;53.336;-1.488;2022-09-21T13:04:49;5;3;
61913;PMS5003;50095;53.336;-1.488;2022-09-21T13:07:29;6;6;
61913;PMS5003;50095;53.336;-1.488;2022-09-21T13:10:18;5;5;
61913;PMS5003;50095;53.336;-1.488;2022-09-21T13:12:55;6;4;
61913;PMS5003;50095;53.336;-1.488;2022-09-21T13:15:28;6;6;
61913;PMS5003;50095;53.336;-1.488;2022-09-21T13:17:58;5;5;
61913;PMS5003;50095;53.336;-1.488;2022-09-21T13:20:32;5;5;
61913;PMS5003;50095;53.336;-1.488;2022-09-21T13:23:01;6;5;
61913;PMS5003;50095;53.336;-1.488;2022-09-21T13:25:29;4;4;
61913;PMS5003;50095;53.336;-1.488;2022-09-21T13:28:01;7;7;
61913;PMS5003;50095;53.336;-1.488;2022-09-21T13:30:33;4;4;
61913;PMS5003;50095;53.336;-1.488;2022-09-21T13:33:03;6;6;
61913;PMS5003;50095;53.336;-1.488;2022-09-21T13:36:03;5;4;
61913;PMS5003;50095;53.336;-1.488;2022-09-21T13:39:16;4;4;
61913;PMS5003;50095;53.336;-1.488;2022-09-21T13:41:44;5;5;
61913;PMS5003;50095;53.336;-1.488;2022-09-21T13:44:34;5;5;
61913;PMS5003;50095;53.336;-1.488;2022-09-21T13:47:04;5;5;
61913;PMS5003;50095;53.336;-1.488;2022-09-21T13:49:38;8;8;
61913;PMS5003;50095;53.336;-1.488;2022-09-21T13:52:20;5;5;
61913;PMS5003;50095;53.336;-1.488;2022-09-21T13:54:56;7;7;
61913;PMS5003;50095;53.336;-1.488;2022-09-21T13:57:28;6;6;
61913;PMS5003;50095;53.336;-1.488;2022-09-21T14:00:04;7;7;
61913;PMS5003;50095;53.336;-1.488;2022-09-21T14:02:53;5;5;
61913;PMS5003;50095;53.336;-1.488;2022-09-21T14:05:25;4;4;
61913;PMS5003;50095;53.336;-1.488;2022-09-21T14:07:59;6;6;
61913;PMS5003;50095;53.336;-1.488;2022-09-21T14:10:28;3;3;
61913;PMS5003;50095;53.336;-1.488;2022-09-21T14:12:58;4;4;
61913;PMS5003;50095;53.336;-1.488;2022-09-21T14:15:36;7;6;
61913;PMS5003;50095;53.336;-1.488;2022-09-21T14:18:16;5;5;
61913;PMS5003;50095;53.336;-1.488;2022-09-21T14:21:18;6;6;
61913;PMS5003;50095;53.336;-1.488;2022-09-21T14:24:20;3;3;
61913;PMS5003;50095;53.336;-1.488;2022-09-21T14:27:00;5;4;
61913;PMS5003;50095;53.336;-1.488;2022-09-21T14:29:37;6;6;
61913;PMS5003;50095;53.336;-1.488;2022-09-21T14:32:10;8;7;
61913;PMS5003;50095;53.336;-1.488;2022-09-21T14:34:43;6;6;
61913;PMS5003;50095;53.336;-1.488;2022-09-21T14:37:17;5;5;
61913;PMS5003;50095;53.336;-1.488;2022-09-21T14:39:53;5;5;
61913;PMS5003;50095;53.336;-1.488;2022-09-21T14:42:22;7;7;
61913;PMS5003;50095;53.336;-1.488;2022-09-21T14:44:54;4;4;
61913;PMS5003;50095;53.336;-1.488;2022-09-21T14:47:27;5;5;
61913;PMS5003;50095;53.336;-1.488;2022-09-21T14:50:34;5;5;
61913;PMS5003;50095;53.336;-1.488;2022-09-21T14:53:15;6;6;
61913;PMS5003;50095;53.336;-1.488;2022-09-21T14:56:00;5;4;
61913;PMS5003;50095;53.336;-1.488;2022-09-21T14:58:42;6;5;
61913;PMS5003;50095;53.336;-1.488;2022-09-21T15:01:23;5;5;
61913;PMS5003;50095;53.336;-1.488;2022-09-21T15:04:07;6;6;
61913;PMS5003;50095;53.336;-1.488;2022-09-21T15:06:52;4;4;
61913;PMS5003;50095;53.336;-1.488;2022-09-21T15:10:02;6;5;
61913;PMS5003;50095;53.336;-1.488;2022-09-21T15:12:43;6;6;
61913;PMS5003;50095;53.336;-1.488;2022-09-21T15:15:22;5;5;
61913;PMS5003;50095;53.336;-1.488;2022-09-21T15:17:59;6;6;
61913;PMS5003;50095;53.336;-1.488;2022-09-21T15:20:27;5;5;
61913;PMS5003;50095;53.336;-1.488;2022-09-21T15:22:57;8;8;
61913;PMS5003;50095;53.336;-1.488;2022-09-21T15:25:26;4;4;
61913;PMS5003;50095;53.336;-1.488;2022-09-21T15:27:56;6;6;
61913;PMS5003;50095;53.336;-1.488;2022-09-21T15:30:24;6;6;
61913;PMS5003;50095;53.336;-1.488;2022-09-21T15:32:54;5;4;
61913;PMS5003;50095;53.336;-1.488;2022-09-21T15:35:24;8;7;
61913;PMS5003;50095;53.336;-1.488;2022-09-21T15:37:54;5;5;
61913;PMS5003;50095;53.336;-1.488;2022-09-21T15:40:23;5;5;
61913;PMS5003;50095;53.336;-1.488;2022-09-21T15:43:01;7;5;
61913;PMS5003;50095;53.336;-1.488;2022-09-21T15:45:31;6;6;
61913;PMS5003;50095;53.336;-1.488;2022-09-21T15:48:05;6;6;
61913;PMS5003;50095;53.336;-1.488;2022-09-21T15:50:32;6;6;
61913;PMS5003;50095;53.336;-1.488;2022-09-21T15:53:00;6;6;
61913;PMS5003;50095;53.336;-1.488;2022-09-21T15:55:31;6;4;
61913;PMS5003;50095;53.336;-1.488;2022-09-21T15:57:58;5;5;
61913;PMS5003;50095;53.336;-1.488;2022-09-21T16:00:27;5;5;
61913;PMS5003;50095;53.336;-1.488;2022-09-21T16:02:57;9;9;
61913;PMS5003;50095;53.336;-1.488;2022-09-21T16:05:29;4;4;
61913;PMS5003;50095;53.336;-1.488;2022-09-21T16:08:06;8;8;
61913;PMS5003;50095;53.336;-1.488;2022-09-21T16:10:45;5;5;
61913;PMS5003;50095;53.336;-1.488;2022-09-21T16:13:14;8;8;
61913;PMS5003;50095;53.336;-1.488;2022-09-21T16:15:49;5;5;
61913;PMS5003;50095;53.336;-1.488;2022-09-21T16:18:28;6;6;
61913;PMS5003;50095;53.336;-1.488;2022-09-21T16:20:59;6;6;
61913;PMS5003;50095;53.336;-1.488;2022-09-21T16:23:34;7;7;
61913;PMS5003;50095;53.336;-1.488;2022-09-21T16:26:01;6;4;
61913;PMS5003;50095;53.336;-1.488;2022-09-21T16:28:33;8;7;
61913;PMS5003;50095;53.336;-1.488;2022-09-21T16:31:34;5;5;
61913;PMS5003;50095;53.336;-1.488;2022-09-21T16:34:03;5;5;
61913;PMS5003;50095;53.336;-1.488;2022-09-21T16:36:44;5;5;
61913;PMS5003;50095;53.336;-1.488;2022-09-21T16:39:13;6;6;
61913;PMS5003;50095;53.336;-1.488;2022-09-21T16:41:43;7;7;
61913;PMS5003;50095;53.336;-1.488;2022-09-21T16:44:14;7;6;
61913;PMS5003;50095;53.336;-1.488;2022-09-21T16:46:43;4;4;
61913;PMS5003;50095;53.336;-1.488;2022-09-21T16:49:11;6;6;
61913;PMS5003;50095;53.336;-1.488;2022-09-21T16:51:44;6;6;
61913;PMS5003;50095;53.336;-1.488;2022-09-21T16:54:12;6;6;
61913;PMS5003;50095;53.336;-1.488;2022-09-21T16:56:40;6;6;
61913;PMS5003;50095;53.336;-1.488;2022-09-21T16:59:11;4;4;
61913;PMS5003;50095;53.336;-1.488;2022-09-21T17:01:41;7;6;
61913;PMS5003;50095;53.336;-1.488;2022-09-21T17:04:08;4;4;
61913;PMS5003;50095;53.336;-1.488;2022-09-21T17:06:35;5;5;